Time;durP1;ratioP1;P1;durP2;ratioP2;P2;SDS_P1;SDS_P2;PMS_P1;PMS_P2;Temp;Humidity;BMP_temperature;BMP_pressure;BME280_temperature;BME280_humidity;BME280_pressure;Samples;Min_cycle;Max_cycle;Signal;HPM_P1;HPM_P2
2021/05/25 00:01:32;;;;;;;1999.90;999.90;;;10.40;99.90;;;;;;5075346;28;20173;-71
2021/05/25 00:03:58;;;;;;;1999.90;999.90;;;10.30;99.90;;;;;;5075197;28;20216;-71
2021/05/25 00:06:23;;;;;;;1999.90;999.90;;;10.30;99.90;;;;;;5074742;28;20428;-71
2021/05/25 00:08:49;;;;;;;1999.90;999.90;;;10.30;99.90;;;;;;5075080;28;20178;-70
2021/05/25 00:11:15;;;;;;;1999.90;999.90;;;10.30;99.90;;;;;;5075087;28;20177;-71
2021/05/25 00:13:41;;;;;;;1999.90;999.90;;;10.30;99.90;;;;;;5075020;28;20257;-71
2021/05/25 00:16:07;;;;;;;1999.90;999.90;;;10.20;99.90;;;;;;5074685;28;20404;-71
2021/05/25 00:18:32;;;;;;;1999.90;999.90;;;10.30;99.90;;;;;;5074949;28;20165;-71
2021/05/25 00:20:59;;;;;;;1999.90;999.90;;;10.20;99.90;;;;;;5074842;28;20662;-71
2021/05/25 00:23:24;;;;;;;1999.90;999.90;;;10.20;99.90;;;;;;5074672;28;20729;-71
2021/05/25 00:25:51;;;;;;;1999.90;999.90;;;10.20;99.90;;;;;;5074457;28;20433;-71
2021/05/25 00:28:20;;;;;;;1999.90;999.90;;;10.20;99.90;;;;;;5074630;28;20201;-70
2021/05/25 00:30:46;;;;;;;1999.90;999.90;;;10.20;99.90;;;;;;5074769;28;20484;-70
2021/05/25 00:33:11;;;;;;;1999.90;999.90;;;10.10;99.90;;;;;;5074593;28;20495;-70
2021/05/25 00:35:40;;;;;;;1999.90;999.90;;;10.10;99.90;;;;;;5074292;28;20399;-70
2021/05/25 00:38:06;;;;;;;1999.90;999.90;;;10.10;99.90;;;;;;5073198;28;20232;-70
2021/05/25 00:40:32;;;;;;;1999.90;999.90;;;10.10;99.90;;;;;;5074518;28;20503;-71
2021/05/25 00:42:57;;;;;;;1999.90;999.90;;;10.10;99.90;;;;;;5074468;28;20949;-70
2021/05/25 00:45:23;;;;;;;1999.90;999.90;;;10.10;99.90;;;;;;5074080;28;20207;-70
2021/05/25 00:47:49;;;;;;;1999.90;999.90;;;10.10;99.90;;;;;;5074301;28;20224;-70
2021/05/25 00:50:21;;;;;;;1999.90;999.90;;;10.10;99.90;;;;;;5074313;28;20258;-70
2021/05/25 00:52:55;;;;;;;1999.90;999.90;;;10.10;99.90;;;;;;5074333;28;20165;-70
2021/05/25 00:55:27;;;;;;;1999.90;999.90;;;10.10;99.90;;;;;;5074048;28;20399;-71
2021/05/25 00:57:55;;;;;;;1999.90;999.90;;;10.00;99.90;;;;;;5074279;28;20483;-71
2021/05/25 01:00:32;;;;;;;1999.90;999.90;;;9.90;99.90;;;;;;5074240;28;20432;-71
2021/05/25 01:02:58;;;;;;;1999.90;999.90;;;9.90;99.90;;;;;;5074099;28;20406;-71
2021/05/25 01:05:24;;;;;;;1999.90;999.90;;;9.80;99.90;;;;;;5073754;28;20550;-71
2021/05/25 01:07:50;;;;;;;1999.90;999.90;;;9.90;99.90;;;;;;5073848;28;20286;-71
2021/05/25 01:10:19;;;;;;;1999.90;999.90;;;9.90;99.90;;;;;;5073959;28;20484;-71
2021/05/25 01:12:57;;;;;;;1999.90;999.90;;;10.00;99.90;;;;;;5073959;28;20419;-71
2021/05/25 01:15:23;;;;;;;1999.90;999.90;;;9.90;99.90;;;;;;5073638;28;20409;-70
2021/05/25 01:17:52;;;;;;;1999.90;999.90;;;9.90;99.90;;;;;;5073812;28;20868;-71
2021/05/25 01:20:20;;;;;;;1999.90;999.90;;;10.00;99.90;;;;;;5073774;28;20940;-71
2021/05/25 01:22:45;;;;;;;1999.90;999.90;;;10.00;99.90;;;;;;5073735;28;20916;-71
2021/05/25 01:25:14;;;;;;;1999.90;999.90;;;10.00;99.90;;;;;;5073363;28;20455;-71
2021/05/25 01:27:40;;;;;;;1999.90;999.90;;;9.90;99.90;;;;;;5073387;28;20262;-69
2021/05/25 01:30:09;;;;;;;1999.90;999.90;;;9.90;99.90;;;;;;5073627;28;20402;-70
2021/05/25 01:32:34;;;;;;;1999.90;999.90;;;9.90;99.90;;;;;;5073699;28;20400;-70
2021/05/25 01:35:00;;;;;;;1999.90;999.90;;;9.90;99.90;;;;;;5073152;28;20426;-71
2021/05/25 01:37:26;;;;;;;1999.90;999.90;;;9.90;99.90;;;;;;5073365;28;20484;-71
2021/05/25 01:39:55;;;;;;;1999.90;999.90;;;9.80;99.90;;;;;;5073457;28;20540;-70
2021/05/25 01:42:30;;;;;;;1999.90;999.90;;;9.90;99.90;;;;;;5073632;28;20664;-71
2021/05/25 01:44:55;;;;;;;1999.90;999.90;;;9.80;99.90;;;;;;5073274;28;20454;-71
2021/05/25 01:47:21;;;;;;;1999.90;999.90;;;9.80;99.90;;;;;;5072544;28;20546;-71
2021/05/25 01:49:46;;;;;;;1999.90;999.90;;;9.80;99.90;;;;;;5073405;28;20662;-71
2021/05/25 01:52:13;;;;;;;1999.90;999.90;;;9.80;99.90;;;;;;5073441;28;20200;-71
2021/05/25 01:54:38;;;;;;;1999.90;999.90;;;9.80;99.90;;;;;;5073664;28;20652;-71
2021/05/25 01:57:04;;;;;;;1999.90;999.90;;;9.80;99.90;;;;;;5072687;28;20472;-71
2021/05/25 01:59:30;;;;;;;1999.90;999.90;;;9.80;99.90;;;;;;5072921;28;20189;-71
2021/05/25 02:01:56;;;;;;;1999.90;999.90;;;9.80;99.90;;;;;;5072995;28;20408;-72
2021/05/25 02:04:21;;;;;;;1999.90;999.90;;;9.80;99.90;;;;;;5072797;28;20740;-71
2021/05/25 02:06:47;;;;;;;1999.90;999.90;;;9.80;99.90;;;;;;5072307;28;20207;-71
2021/05/25 02:09:13;;;;;;;1999.90;999.90;;;9.70;99.90;;;;;;5072795;28;20655;-71
2021/05/25 02:11:39;;;;;;;1999.90;999.90;;;9.70;99.90;;;;;;5072704;28;20220;-71
2021/05/25 02:14:04;;;;;;;1999.90;999.90;;;9.60;99.90;;;;;;5072890;28;20183;-71
2021/05/25 02:16:30;;;;;;;1999.90;999.90;;;9.60;99.90;;;;;;5072344;28;20430;-71
2021/05/25 02:18:56;;;;;;;1999.90;999.90;;;9.60;99.90;;;;;;5072631;28;20175;-71
2021/05/25 02:21:22;;;;;;;1999.90;999.90;;;9.50;99.90;;;;;;5072502;28;20249;-71
2021/05/25 02:23:49;;;;;;;1999.90;999.90;;;9.40;99.90;;;;;;5072480;28;20209;-71
2021/05/25 02:26:14;;;;;;;1999.90;999.90;;;9.40;99.90;;;;;;5072100;28;20430;-72
2021/05/25 02:28:41;;;;;;;1999.90;999.90;;;9.40;99.90;;;;;;5072473;28;20951;-72
2021/05/25 02:31:07;;;;;;;1999.90;999.90;;;9.50;99.90;;;;;;5072360;28;20399;-72
2021/05/25 02:33:34;;;;;;;1999.90;999.90;;;9.50;99.90;;;;;;5072379;28;20403;-71
2021/05/25 02:36:00;;;;;;;1999.90;999.90;;;9.50;99.90;;;;;;5071990;28;20406;-71
2021/05/25 02:38:28;;;;;;;1999.90;999.90;;;9.50;99.90;;;;;;5072231;28;20430;-71
2021/05/25 02:40:54;;;;;;;1999.90;999.90;;;9.60;99.90;;;;;;5072251;28;20488;-71
2021/05/25 02:43:22;;;;;;;1999.90;999.90;;;9.60;99.90;;;;;;5072160;28;20825;-71
2021/05/25 02:45:48;;;;;;;1999.90;999.90;;;9.70;99.90;;;;;;5071999;28;20812;-71
2021/05/25 02:48:14;;;;;;;1999.90;999.90;;;9.60;99.90;;;;;;5071981;28;20420;-71
2021/05/25 02:50:41;;;;;;;1999.90;999.90;;;9.60;99.90;;;;;;5072122;28;20744;-71
2021/05/25 02:53:07;;;;;;;1999.90;999.90;;;9.70;99.90;;;;;;5072040;28;20169;-71
2021/05/25 02:55:35;;;;;;;1999.90;999.90;;;9.80;99.90;;;;;;5071882;28;20528;-71
2021/05/25 02:58:03;;;;;;;1999.90;999.90;;;9.80;99.90;;;;;;5070884;28;20442;-71
2021/05/25 03:00:39;;;;;;;1999.90;999.90;;;9.70;99.90;;;;;;5071816;28;20410;-71
2021/05/25 03:03:06;;;;;;;1999.90;999.90;;;9.80;99.90;;;;;;5071754;28;20494;-71
2021/05/25 03:05:33;;;;;;;1999.90;999.90;;;9.80;99.90;;;;;;5071624;28;20459;-71
2021/05/25 03:08:00;;;;;;;1999.90;999.90;;;9.80;99.90;;;;;;5072122;28;20475;-71
2021/05/25 03:10:28;;;;;;;1999.90;999.90;;;9.80;99.90;;;;;;5071959;28;20773;-72
2021/05/25 03:12:54;;;;;;;1999.90;999.90;;;9.80;99.90;;;;;;5071978;28;20401;-72
2021/05/25 03:15:23;;;;;;;1999.90;999.90;;;9.70;99.90;;;;;;5071642;28;20459;-72
2021/05/25 03:17:48;;;;;;;1999.90;999.90;;;9.70;99.90;;;;;;5071811;28;20189;-71
2021/05/25 03:20:15;;;;;;;1999.90;999.90;;;9.60;99.90;;;;;;5071714;28;20459;-71
2021/05/25 03:22:41;;;;;;;1999.90;999.90;;;9.60;99.90;;;;;;5071879;28;20523;-71
2021/05/25 03:25:09;;;;;;;1999.90;999.90;;;9.60;99.90;;;;;;5071374;28;20978;-71
2021/05/25 03:27:35;;;;;;;1999.90;999.90;;;9.50;99.90;;;;;;5071735;28;20422;-71
2021/05/25 03:30:01;;;;;;;1999.90;999.90;;;9.50;99.90;;;;;;5071740;28;20907;-70
2021/05/25 03:32:27;;;;;;;1999.90;999.90;;;9.40;99.90;;;;;;5071683;28;20401;-70
2021/05/25 03:34:53;;;;;;;1999.90;999.90;;;9.40;99.90;;;;;;5071322;28;20409;-71
2021/05/25 03:37:18;;;;;;;1999.90;999.90;;;9.30;99.90;;;;;;5071567;28;20658;-70
2021/05/25 03:39:44;;;;;;;1999.90;999.90;;;9.20;99.90;;;;;;5071947;28;20260;-71
2021/05/25 03:42:09;;;;;;;1999.90;999.90;;;9.30;99.90;;;;;;5072472;28;20178;-71
2021/05/25 03:44:35;;;;;;;1999.90;999.90;;;9.30;99.90;;;;;;5072323;28;20197;-70
2021/05/25 03:47:00;;;;;;;1999.90;999.90;;;9.30;99.90;;;;;;5071660;28;20186;-71
2021/05/25 03:49:26;;;;;;;1999.90;999.90;;;9.30;99.90;;;;;;5071710;28;20191;-71
2021/05/25 03:51:52;;;;;;;1999.90;999.90;;;9.30;99.90;;;;;;5071819;28;20170;-71
2021/05/25 03:54:22;;;;;;;1999.90;999.90;;;9.30;99.90;;;;;;5071505;28;20168;-71
2021/05/25 03:57:02;;;;;;;1999.90;999.90;;;9.30;99.90;;;;;;5071172;28;20668;-71
2021/05/25 03:59:28;;;;;;;1999.90;999.90;;;9.30;99.90;;;;;;5071446;28;20409;-71
2021/05/25 04:01:53;;;;;;;1999.90;999.90;;;9.30;99.90;;;;;;5071433;28;20780;-71
2021/05/25 04:04:19;;;;;;;1999.90;999.90;;;9.30;99.90;;;;;;5071322;28;20189;-71
2021/05/25 04:06:44;;;;;;;1999.90;999.90;;;9.30;99.90;;;;;;5070939;28;20301;-72
2021/05/25 04:09:10;;;;;;;1999.90;999.90;;;9.30;99.90;;;;;;5071362;28;20155;-72
2021/05/25 04:11:36;;;;;;;1999.90;999.90;;;9.30;99.90;;;;;;5071355;28;20648;-71
2021/05/25 04:14:03;;;;;;;1999.90;999.90;;;9.30;99.90;;;;;;5074576;28;20265;-72
2021/05/25 04:16:28;;;;;;;1999.90;999.90;;;9.30;99.90;;;;;;5074522;28;20560;-71
2021/05/25 04:18:54;;;;;;;1999.90;999.90;;;9.30;99.90;;;;;;5074947;28;20413;-72
2021/05/25 04:21:20;;;;;;;1999.90;999.90;;;9.30;99.90;;;;;;5074845;28;20176;-72
2021/05/25 04:23:45;;;;;;;1999.90;999.90;;;9.40;99.90;;;;;;5074848;28;20192;-72
2021/05/25 04:26:11;;;;;;;1999.90;999.90;;;9.40;99.90;;;;;;5074451;28;20170;-72
2021/05/25 04:28:37;;;;;;;1999.90;999.90;;;9.50;99.90;;;;;;5074768;28;20539;-72
2021/05/25 04:31:03;;;;;;;1999.90;999.90;;;9.60;99.90;;;;;;5074657;28;20163;-72
2021/05/25 04:33:29;;;;;;;1999.90;999.90;;;9.60;99.90;;;;;;5074666;28;20543;-72
2021/05/25 04:35:55;;;;;;;1999.90;999.90;;;9.60;99.90;;;;;;5074425;28;20401;-71
2021/05/25 04:38:20;;;;;;;1999.90;999.90;;;9.60;99.90;;;;;;5074531;28;20192;-72
2021/05/25 04:40:47;;;;;;;1999.90;999.90;;;9.60;99.90;;;;;;5074688;28;21083;-72
2021/05/25 04:43:12;;;;;;;1999.90;999.90;;;9.60;99.90;;;;;;5074424;28;20163;-72
2021/05/25 04:45:39;;;;;;;1999.90;999.90;;;9.50;99.90;;;;;;5074175;28;20414;-72
2021/05/25 04:48:06;;;;;;;1999.90;999.90;;;9.50;99.90;;;;;;5074303;28;20194;-71
2021/05/25 04:50:33;;;;;;;1999.90;999.90;;;9.40;99.90;;;;;;5074430;28;20783;-71
2021/05/25 04:52:59;;;;;;;1999.90;999.90;;;9.50;99.90;;;;;;5074399;28;20502;-71
2021/05/25 04:55:25;;;;;;;1999.90;999.90;;;9.50;99.90;;;;;;5074062;28;20500;-71
2021/05/25 04:57:51;;;;;;;1999.90;999.90;;;9.40;99.90;;;;;;5074274;28;20261;-71
2021/05/25 05:00:26;;;;;;;1999.90;999.90;;;9.40;99.90;;;;;;5074186;28;20648;-70
2021/05/25 05:02:53;;;;;;;1999.90;999.90;;;9.30;99.90;;;;;;5074170;28;20466;-70
2021/05/25 05:05:18;;;;;;;1999.90;999.90;;;9.20;99.90;;;;;;5073740;28;20464;-70
2021/05/25 05:07:44;;;;;;;1999.90;999.90;;;9.10;99.90;;;;;;5073919;28;20443;-71
2021/05/25 05:10:11;;;;;;;1999.90;999.90;;;9.00;99.90;;;;;;5074037;28;20405;-70
2021/05/25 05:12:36;;;;;;;1999.90;999.90;;;9.00;99.90;;;;;;5073933;28;20169;-70
2021/05/25 05:15:04;;;;;;;1999.90;999.90;;;8.90;99.90;;;;;;5073683;28;20432;-71
2021/05/25 05:17:30;;;;;;;1999.90;999.90;;;8.80;99.90;;;;;;5072406;28;20558;-70
2021/05/25 05:19:56;;;;;;;1999.90;999.90;;;8.80;99.90;;;;;;5073816;28;20494;-70
2021/05/25 05:22:22;;;;;;;1999.90;999.90;;;8.80;99.90;;;;;;5073663;28;20413;-70
2021/05/25 05:24:48;;;;;;;1999.90;999.90;;;8.80;99.90;;;;;;5072760;28;20507;-70
2021/05/25 05:27:14;;;;;;;1999.90;999.90;;;8.80;99.90;;;;;;5073634;28;20432;-70
2021/05/25 05:29:39;;;;;;;1999.90;999.90;;;8.80;99.90;;;;;;5073534;28;20955;-69
2021/05/25 05:32:05;;;;;;;1999.90;999.90;;;8.90;99.90;;;;;;5073553;28;20597;-70
2021/05/25 05:34:31;;;;;;;1999.90;999.90;;;8.90;99.90;;;;;;5073491;28;20175;-70
2021/05/25 05:36:57;;;;;;;1999.90;999.90;;;8.80;99.90;;;;;;5073202;28;20758;-70
2021/05/25 05:39:23;;;;;;;1999.90;999.90;;;8.80;99.90;;;;;;5073457;28;20412;-70
2021/05/25 05:41:48;;;;;;;1999.90;999.90;;;8.80;99.90;;;;;;5073406;28;20254;-71
2021/05/25 05:44:14;;;;;;;1999.90;999.90;;;8.80;99.90;;;;;;5073149;28;20208;-71
2021/05/25 05:46:40;;;;;;;1999.90;999.90;;;8.80;99.90;;;;;;5072900;28;20211;-71
2021/05/25 05:49:05;;;;;;;1999.90;999.90;;;8.80;99.90;;;;;;5073289;28;20180;-71
2021/05/25 05:51:31;;;;;;;1999.90;999.90;;;8.90;99.90;;;;;;5072087;28;20164;-71
2021/05/25 05:53:57;;;;;;;1999.90;999.90;;;9.00;99.90;;;;;;5073131;28;20163;-71
2021/05/25 05:56:24;;;;;;;1999.90;999.90;;;9.10;99.90;;;;;;5072693;28;20437;-72
2021/05/25 05:58:50;;;;;;;1999.90;999.90;;;9.20;99.90;;;;;;5073000;28;20402;-72
2021/05/25 06:01:16;;;;;;;1999.90;999.90;;;9.20;99.90;;;;;;5072970;28;20887;-72
2021/05/25 06:03:44;;;;;;;1999.90;999.90;;;9.30;99.90;;;;;;5072882;28;20943;-72
2021/05/25 06:06:11;;;;;;;1999.90;999.90;;;9.30;99.90;;;;;;5072372;28;20398;-72
2021/05/25 06:08:36;;;;;;;1999.90;999.90;;;9.40;99.90;;;;;;5072875;28;20426;-72
2021/05/25 06:11:02;;;;;;;1999.90;999.90;;;9.40;99.90;;;;;;5072782;28;20405;-72
2021/05/25 06:13:28;;;;;;;1999.90;999.90;;;9.30;99.90;;;;;;5072656;28;20178;-72
2021/05/25 06:15:57;;;;;;;1999.90;999.90;;;9.30;99.90;;;;;;5072393;28;20405;-73
2021/05/25 06:18:23;;;;;;;1999.90;999.90;;;9.20;99.90;;;;;;5072762;28;20709;-72
2021/05/25 06:20:48;;;;;;;1999.90;999.90;;;9.20;99.90;;;;;;5072624;28;20397;-72
2021/05/25 06:23:14;;;;;;;1999.90;999.90;;;9.20;99.90;;;;;;5072833;28;20163;-72
2021/05/25 06:25:41;;;;;;;1999.90;999.90;;;9.20;99.90;;;;;;5072076;28;20196;-72
2021/05/25 06:28:07;;;;;;;1999.90;999.90;;;9.10;99.90;;;;;;5072497;28;20268;-72
2021/05/25 06:30:32;;;;;;;1999.90;999.90;;;9.10;99.90;;;;;;5071070;28;20449;-72
2021/05/25 06:32:58;;;;;;;1999.90;999.90;;;9.00;99.90;;;;;;5072433;28;20411;-72
2021/05/25 06:35:24;;;;;;;1999.90;999.90;;;9.00;99.90;;;;;;5071744;28;20179;-73
2021/05/25 06:37:50;;;;;;;1999.90;999.90;;;9.00;99.90;;;;;;5071676;28;20434;-72
2021/05/25 06:40:16;;;;;;;1999.90;999.90;;;9.10;99.90;;;;;;5072272;28;20180;-72
2021/05/25 06:42:42;;;;;;;1999.90;999.90;;;9.10;99.90;;;;;;5072467;28;20721;-73
2021/05/25 06:45:09;;;;;;;1999.90;999.90;;;9.20;99.90;;;;;;5071782;28;20456;-72
2021/05/25 06:47:35;;;;;;;1999.90;999.90;;;9.20;99.90;;;;;;5072103;28;20879;-73
2021/05/25 06:50:01;;;;;;;1999.90;999.90;;;9.20;99.90;;;;;;5072196;28;20480;-72
2021/05/25 06:52:26;;;;;;;1999.90;999.90;;;9.20;99.90;;;;;;5072178;28;20744;-72
2021/05/25 06:54:52;;;;;;;1999.90;999.90;;;9.20;99.90;;;;;;5071802;28;20164;-72
2021/05/25 06:57:18;;;;;;;1999.90;999.90;;;9.10;99.90;;;;;;5072032;28;20274;-73
2021/05/25 06:59:43;;;;;;;1999.90;999.90;;;9.10;99.90;;;;;;5071979;28;20585;-72
2021/05/25 07:02:09;;;;;;;1999.90;999.90;;;9.00;99.90;;;;;;5071976;28;20224;-71
2021/05/25 07:04:35;;;;;;;1999.90;999.90;;;8.70;99.90;;;;;;5071797;28;20229;-70
2021/05/25 07:07:00;;;;;;;1999.90;999.90;;;8.40;99.90;;;;;;5071443;28;20209;-70
2021/05/25 07:09:26;;;;;;;1999.90;999.90;;;8.10;99.90;;;;;;5071868;28;20163;-70
2021/05/25 07:11:52;;;;;;;1999.90;999.90;;;8.00;99.90;;;;;;5071913;28;20220;-70
2021/05/25 07:14:17;;;;;;;1999.90;999.90;;;8.00;99.90;;;;;;5071872;28;20171;-70
2021/05/25 07:16:43;;;;;;;1999.90;999.90;;;8.00;99.90;;;;;;5071550;28;20223;-69
2021/05/25 07:19:08;;;;;;;1999.90;999.90;;;7.90;99.90;;;;;;5071927;28;20174;-70
2021/05/25 07:21:34;;;;;;;1999.90;999.90;;;7.90;99.90;;;;;;5071854;28;20186;-69
2021/05/25 07:24:00;;;;;;;1999.90;999.90;;;7.90;99.90;;;;;;5071673;28;20550;-69
2021/05/25 07:26:26;;;;;;;1999.90;999.90;;;8.00;99.90;;;;;;5071430;28;20190;-69
2021/05/25 07:28:52;;;;;;;1999.90;999.90;;;8.20;99.90;;;;;;5071706;28;20170;-68
2021/05/25 07:31:18;;;;;;;1999.90;999.90;;;8.30;99.90;;;;;;5071791;28;20492;-69
2021/05/25 07:33:45;;;;;;;1999.90;999.90;;;8.50;99.90;;;;;;5071829;28;20466;-69
2021/05/25 07:36:11;;;;;;;1999.90;999.90;;;8.70;99.90;;;;;;5071534;28;20416;-68
2021/05/25 07:38:36;;;;;;;1999.90;999.90;;;8.90;99.90;;;;;;5071918;28;20413;-69
2021/05/25 07:41:02;;;;;;;1999.90;999.90;;;9.20;99.90;;;;;;5071767;28;20428;-68
2021/05/25 07:43:29;;;;;;;1999.90;999.90;;;9.50;99.90;;;;;;5071476;28;20517;-68
2021/05/25 07:45:55;;;;;;;1999.90;999.90;;;9.80;99.90;;;;;;5071297;28;20527;-68
2021/05/25 07:48:21;;;;;;;1999.90;999.90;;;10.00;99.90;;;;;;5073785;28;20510;-68
2021/05/25 07:50:47;;;;;;;1999.90;999.90;;;10.40;99.90;;;;;;5075475;28;20408;-68
2021/05/25 07:53:13;;;;;;;1999.90;999.90;;;10.60;99.90;;;;;;5075418;28;20412;-68
2021/05/25 07:55:39;;;;;;;1999.90;999.90;;;10.80;99.90;;;;;;5075106;28;20219;-68
2021/05/25 07:58:05;;;;;;;1999.90;999.90;;;11.00;99.90;;;;;;5075267;28;20276;-68
2021/05/25 08:00:32;;;;;;;1999.90;999.90;;;11.10;99.90;;;;;;5075460;28;20408;-68
2021/05/25 08:02:58;;;;;;;1999.90;999.90;;;11.10;99.90;;;;;;5075247;28;20416;-68
2021/05/25 08:05:25;;;;;;;1999.90;999.90;;;11.10;99.90;;;;;;5074894;28;20459;-69
2021/05/25 08:07:51;;;;;;;1999.90;999.90;;;11.10;99.90;;;;;;5074925;28;20523;-69
2021/05/25 08:10:17;;;;;;;1999.90;999.90;;;11.00;99.90;;;;;;5074369;28;20399;-69
2021/05/25 08:12:44;;;;;;;1999.90;999.90;;;10.80;99.90;;;;;;5074849;28;20752;-69
2021/05/25 08:15:12;;;;;;;1999.90;999.90;;;10.50;99.90;;;;;;5074770;28;20898;-69
2021/05/25 08:20:44;;;;;;;1999.90;999.90;;;10.30;99.90;;;;;;4993301;28;20423;-69
2021/05/25 08:23:11;;;;;;;1999.90;999.90;;;10.30;99.90;;;;;;4993286;28;20418;-69
2021/05/25 08:25:39;;;;;;;1999.90;999.90;;;10.30;99.90;;;;;;5021716;28;20472;-69
2021/05/25 08:28:05;;;;;;;1999.90;999.90;;;10.40;99.90;;;;;;5075109;28;20482;-69
2021/05/25 08:30:34;;;;;;;1999.90;999.90;;;10.50;99.90;;;;;;5073414;28;20418;-70
2021/05/25 08:32:59;;;;;;;1999.90;999.90;;;10.60;99.90;;;;;;5074609;28;20900;-69
2021/05/25 08:35:29;;;;;;;1999.90;999.90;;;10.80;99.90;;;;;;5074361;28;20399;-69
2021/05/25 08:37:57;;;;;;;1999.90;999.90;;;10.80;99.90;;;;;;5074380;28;20239;-70
2021/05/25 08:40:24;;;;;;;1999.90;999.90;;;10.70;99.90;;;;;;5074589;28;20458;-70
2021/05/25 08:42:51;;;;;;;1999.90;999.90;;;10.60;99.90;;;;;;5074480;28;20405;-70
2021/05/25 08:45:17;;;;;;;1999.90;999.90;;;10.70;99.90;;;;;;5074680;28;20559;-70
2021/05/25 08:47:49;;;;;;;1999.90;999.90;;;10.60;99.90;;;;;;5075928;28;20472;-70
2021/05/25 08:50:16;;;;;;;1999.90;999.90;;;10.60;99.90;;;;;;5075830;28;20495;-70
2021/05/25 08:52:42;;;;;;;1999.90;999.90;;;10.60;99.90;;;;;;5074653;28;20901;-70
2021/05/25 08:55:10;;;;;;;1999.90;999.90;;;10.60;99.90;;;;;;5074066;28;20405;-70
2021/05/25 08:57:36;;;;;;;1999.90;999.90;;;10.70;99.90;;;;;;5074199;28;20185;-70
2021/05/25 09:00:06;;;;;;;1999.90;999.90;;;10.60;99.90;;;;;;5072996;28;20461;-70
2021/05/25 09:02:31;;;;;;;1999.90;999.90;;;10.70;99.90;;;;;;5074260;28;20673;-71
2021/05/25 09:04:57;;;;;;;1999.90;999.90;;;10.80;99.90;;;;;;5073582;28;20490;-71
2021/05/25 09:07:41;;;;;;;1999.90;999.90;;;10.90;99.90;;;;;;5074320;28;20232;-71
2021/05/25 09:10:16;;;;;;;1999.90;999.90;;;10.90;99.90;;;;;;5086590;28;20486;-70
2021/05/25 09:12:47;;;;;;;1999.90;999.90;;;11.00;99.90;;;;;;5092940;28;20406;-69
2021/05/25 09:15:16;;;;;;;1999.90;999.90;;;11.00;99.90;;;;;;5092791;28;20400;-69
2021/05/25 09:17:42;;;;;;;1999.90;999.90;;;11.10;99.90;;;;;;5093170;28;20909;-70
2021/05/25 09:20:09;;;;;;;1999.90;999.90;;;11.20;99.90;;;;;;5093009;28;20400;-69
2021/05/25 09:22:36;;;;;;;1999.90;999.90;;;11.10;99.90;;;;;;5093071;28;20883;-69
2021/05/25 09:25:20;;;;;;;1999.90;999.90;;;11.10;99.90;;;;;;5092531;28;20974;-69
2021/05/25 09:27:57;;;;;;;1999.90;999.90;;;11.10;99.90;;;;;;5092941;28;20479;-69
2021/05/25 09:30:25;;;;;;;1999.90;999.90;;;11.00;99.90;;;;;;5093041;28;20390;-69
2021/05/25 09:33:06;;;;;;;1999.90;999.90;;;10.90;99.90;;;;;;5093011;28;20406;-69
2021/05/25 09:35:41;;;;;;;1999.90;999.90;;;10.80;99.90;;;;;;5089790;28;20448;-69
2021/05/25 09:38:30;;;;;;;1999.90;999.90;;;10.70;99.90;;;;;;5090432;28;20431;-68
2021/05/25 09:41:00;;;;;;;1999.90;999.90;;;10.70;99.90;;;;;;5087878;28;20432;-68
2021/05/25 09:43:28;;;;;;;1999.90;999.90;;;10.80;99.90;;;;;;5090377;28;20452;-68
2021/05/25 09:46:02;;;;;;;1999.90;999.90;;;11.00;99.90;;;;;;5091115;28;20452;-69
2021/05/25 09:48:52;;;;;;;1999.90;999.90;;;11.10;99.90;;;;;;5081212;28;20428;-70
2021/05/25 09:51:22;;;;;;;1999.90;999.90;;;11.10;99.90;;;;;;5066195;28;20422;-68
2021/05/25 09:53:51;;;;;;;1999.90;999.90;;;11.10;99.90;;;;;;5067019;28;21011;-69
2021/05/25 09:56:25;;;;;;;1999.90;999.90;;;11.10;99.90;;;;;;5066486;28;20990;-71
2021/05/25 09:58:50;;;;;;;1999.90;999.90;;;11.20;99.90;;;;;;5066720;28;20413;-72
2021/05/25 10:01:17;;;;;;;1999.90;999.90;;;11.10;99.90;;;;;;5065378;28;21099;-70
2021/05/25 10:03:52;;;;;;;1999.90;999.90;;;11.20;99.90;;;;;;5066092;28;20178;-69
2021/05/25 10:06:18;;;;;;;1999.90;999.90;;;11.20;99.90;;;;;;5065536;28;20419;-69
2021/05/25 10:08:45;;;;;;;1999.90;999.90;;;11.30;99.90;;;;;;5067241;28;20421;-69
2021/05/25 10:11:15;;;;;;;1999.90;999.90;;;11.50;99.90;;;;;;5066226;28;20544;-69
2021/05/25 10:13:41;;;;;;;1999.90;999.90;;;11.60;99.90;;;;;;5066318;28;20409;-70
2021/05/25 10:16:09;;;;;;;1999.90;999.90;;;11.70;99.90;;;;;;5066490;28;20473;-69
2021/05/25 10:21:12;;;;;;;1999.90;999.90;;;11.70;99.90;;;;;;5065479;28;20432;-69
2021/05/25 10:23:41;;;;;;;1999.90;999.90;;;11.70;99.90;;;;;;5066330;28;20470;-69
2021/05/25 10:26:18;;;;;;;1999.90;999.90;;;11.80;99.90;;;;;;5066214;28;20424;-70
2021/05/25 10:28:50;;;;;;;1999.90;999.90;;;11.90;99.90;;;;;;5065441;28;20424;-66
2021/05/25 10:31:36;;;;;;;1999.90;999.90;;;11.90;99.90;;;;;;5066501;28;20417;-68
2021/05/25 10:34:22;;;;;;;1999.90;999.90;;;11.90;99.90;;;;;;5064535;28;20511;-69
2021/05/25 10:36:48;;;;;;;1999.90;999.90;;;12.00;99.90;;;;;;5065861;28;20443;-68
2021/05/25 10:39:37;;;;;;;1999.90;999.90;;;12.00;99.90;;;;;;5068059;28;20429;-68
2021/05/25 10:42:35;;;;;;;1999.90;999.90;;;11.90;99.90;;;;;;5067529;28;20424;-68
2021/05/25 10:45:04;;;;;;;1999.90;999.90;;;12.00;99.90;;;;;;5054432;28;20471;-68
2021/05/25 10:47:35;;;;;;;1999.90;999.90;;;11.90;99.90;;;;;;5065237;28;21037;-69
2021/05/25 10:53:09;;;;;;;1999.90;999.90;;;12.30;99.90;;;;;;5058911;28;20418;-68
2021/05/25 10:55:44;;;;;;;1999.90;999.90;;;12.60;99.90;;;;;;5061106;28;20937;-68
2021/05/25 10:58:31;;;;;;;1999.90;999.90;;;12.70;99.90;;;;;;5068129;28;20435;-68
2021/05/25 11:01:03;;;;;;;1999.90;999.90;;;12.70;99.90;;;;;;5060658;28;20420;-70
2021/05/25 11:03:29;;;;;;;1999.90;999.90;;;12.80;99.90;;;;;;5067591;28;20416;-70
2021/05/25 11:06:28;;;;;;;1999.90;999.90;;;12.70;99.90;;;;;;5052061;28;20935;-70
2021/05/25 11:08:54;;;;;;;1999.90;999.90;;;12.80;99.90;;;;;;5057196;28;20422;-68
2021/05/25 11:11:27;;;;;;;1999.90;999.90;;;12.80;99.90;;;;;;5049043;28;20789;-68
2021/05/25 11:13:53;;;;;;;1999.90;999.90;;;12.90;99.90;;;;;;5049680;28;20417;-68
2021/05/25 11:16:32;;;;;;;1999.90;999.90;;;13.20;99.90;;;;;;5065364;28;20500;-68
2021/05/25 11:19:08;;;;;;;1999.90;999.90;;;13.60;99.90;;;;;;5048953;28;20402;-69
2021/05/25 11:24:22;;;;;;;1999.90;999.90;;;14.00;99.90;;;;;;5069467;28;20450;-68
2021/05/25 11:26:52;;;;;;;1999.90;999.90;;;14.40;99.90;;;;;;5069494;28;20491;-68
2021/05/25 11:29:17;;;;;;;1999.90;999.90;;;14.60;99.90;;;;;;5055060;28;20436;-68
2021/05/25 11:31:43;;;;;;;1999.90;999.90;;;15.10;99.90;;;;;;5057419;28;20414;-68
2021/05/25 11:34:08;;;;;;;1999.90;999.90;;;14.90;99.90;;;;;;5068643;28;20178;-68
2021/05/25 11:36:37;;;;;;;1999.90;999.90;;;14.90;99.90;;;;;;5072116;28;20229;-68
2021/05/25 11:39:05;;;;;;;1999.90;999.90;;;15.00;99.90;;;;;;5075142;28;20752;-68
2021/05/25 11:41:31;;;;;;;1999.90;999.90;;;15.20;99.90;;;;;;5074475;28;20499;-68
2021/05/25 11:44:05;;;;;;;1999.90;999.90;;;15.50;99.90;;;;;;5074330;28;20587;-68
2021/05/25 11:46:58;;;;;;;1999.90;999.90;;;15.90;99.90;;;;;;5074253;28;20563;-68
2021/05/25 11:49:25;;;;;;;1999.90;999.90;;;16.00;99.90;;;;;;5072547;28;20419;-68
2021/05/25 11:51:51;;;;;;;1999.90;999.90;;;15.70;99.90;;;;;;5075029;28;20412;-69
2021/05/25 11:54:21;;;;;;;1999.90;999.90;;;15.10;99.90;;;;;;5074836;28;20934;-68
2021/05/25 11:56:50;;;;;;;1999.90;999.90;;;13.90;99.90;;;;;;5062586;28;20425;-68
2021/05/25 11:59:21;;;;;;;1999.90;999.90;;;12.60;99.90;;;;;;5069887;28;20471;-66
2021/05/25 12:01:51;;;;;;;1999.90;999.90;;;12.00;99.90;;;;;;5074952;28;20447;-66
2021/05/25 12:04:19;;;;;;;1999.90;999.90;;;11.70;99.90;;;;;;5073934;28;20455;-66
2021/05/25 12:06:56;;;;;;;1999.90;999.90;;;11.60;99.90;;;;;;5073901;28;20953;-66
2021/05/25 12:09:28;;;;;;;1999.90;999.90;;;11.30;99.90;;;;;;5066509;28;20457;-67
2021/05/25 12:11:58;;;;;;;1999.90;999.90;;;10.40;99.90;;;;;;5075282;28;20428;-68
2021/05/25 12:14:29;;;;;;;1999.90;999.90;;;9.60;99.90;;;;;;5074893;28;20433;-67
2021/05/25 12:16:59;;;;;;;1999.90;999.90;;;9.30;99.90;;;;;;5074817;28;20448;-66
2021/05/25 12:19:26;;;;;;;1999.90;999.90;;;9.00;99.90;;;;;;5075313;28;20448;-66